Time,TemperatureF,DewpointF,PressureIn,WindDirection,WindDirectionDegrees,WindSpeedMPH,WindSpeedGustMPH,Humidity,HourlyPrecipIn,Conditions,Clouds,dailyrainin,SoftwareType,DateUTC
2013-02-01 00:07:00,51.3,38.7,30.20,North,350,4.0,5.0,62,0.00,,,0.00,Wunderground v.1.15,2013-02-01 05:07:00,
2013-02-01 00:12:00,51.2,39.0,30.20,North,5,4.0,4.0,63,0.00,,,0.00,Wunderground v.1.15,2013-02-01 05:12:00,
2013-02-01 00:17:00,51.1,39.3,30.21,North,11,2.0,4.0,64,0.00,,,0.00,Wunderground v.1.15,2013-02-01 05:17:00,
2013-02-01 00:22:00,50.9,39.1,30.21,NNE,13,1.0,1.0,64,0.00,,,0.00,Wunderground v.1.15,2013-02-01 05:22:00,
2013-02-01 00:27:00,50.6,39.3,30.21,North,11,1.0,1.0,65,0.00,,,0.00,Wunderground v.1.15,2013-02-01 05:27:00,
2013-02-01 00:37:00,50.4,39.5,30.21,NNE,26,1.0,2.0,66,0.00,,,0.00,Wunderground v.1.15,2013-02-01 05:37:00,
2013-02-01 00:42:00,50.4,39.5,30.21,NNE,18,1.0,1.0,66,0.00,,,0.00,Wunderground v.1.15,2013-02-01 05:42:00,
2013-02-01 00:47:00,50.4,39.9,30.21,NNE,14,2.0,2.0,67,0.00,,,0.00,Wunderground v.1.15,2013-02-01 05:47:00,
2013-02-01 00:57:00,50.4,39.9,30.21,North,360,1.0,6.0,67,0.00,,,0.00,Wunderground v.1.15,2013-02-01 05:57:00,
2013-02-01 01:07:00,50.3,40.1,30.21,North,11,1.0,11.0,68,0.00,,,0.00,Wunderground v.1.15,2013-02-01 06:07:00,
2013-02-01 01:17:00,50.0,39.8,30.20,North,360,0.0,11.0,68,0.00,,,0.00,Wunderground v.1.15,2013-02-01 06:17:00,
2013-02-01 01:27:00,49.9,39.8,30.20,NE,43,2.0,11.0,68,0.00,,,0.00,Wunderground v.1.15,2013-02-01 06:27:00,
2013-02-01 01:37:00,49.7,39.9,30.20,NNE,13,0.0,11.0,69,0.00,,,0.00,Wunderground v.1.15,2013-02-01 06:37:00,
2013-02-01 01:47:00,49.8,40.0,30.21,NNE,28,2.0,11.0,69,0.00,,,0.00,Wunderground v.1.15,2013-02-01 06:47:00,
2013-02-01 01:57:00,49.8,40.0,30.21,North,360,2.0,11.0,69,0.00,,,0.00,Wunderground v.1.15,2013-02-01 06:57:00,
2013-02-01 02:07:00,49.8,40.4,30.20,North,5,3.0,11.0,70,0.00,,,0.00,Wunderground v.1.15,2013-02-01 07:07:00,
2013-02-01 02:12:00,49.7,40.3,30.20,North,5,1.0,1.0,70,0.00,,,0.00,Wunderground v.1.15,2013-02-01 07:12:00,
2013-02-01 02:22:00,49.8,40.4,30.21,North,5,2.0,3.0,70,0.00,,,0.00,Wunderground v.1.15,2013-02-01 07:22:00,
2013-02-01 02:27:00,49.7,40.3,30.21,NNE,24,1.0,3.0,70,0.00,,,0.00,Wunderground v.1.15,2013-02-01 07:27:00,
2013-02-01 02:37:00,49.5,40.8,30.20,NNE,21,0.0,0.0,72,0.00,,,0.00,Wunderground v.1.15,2013-02-01 07:37:00,
2013-02-01 02:42:00,49.5,40.8,30.20,NNE,19,0.0,0.0,72,0.00,,,0.00,Wunderground v.1.15,2013-02-01 07:42:00,
2013-02-01 02:52:00,49.7,40.7,30.20,NNW,329,3.0,6.0,71,0.00,,,0.00,Wunderground v.1.15,2013-02-01 07:52:00,
2013-02-01 03:02:00,49.8,40.4,30.20,North,9,4.0,9.0,70,0.00,,,0.00,Wunderground v.1.15,2013-02-01 08:02:00,
2013-02-01 03:07:00,49.7,40.7,30.20,NNE,18,3.0,9.0,71,0.00,,,0.00,Wunderground v.1.15,2013-02-01 08:07:00,
2013-02-01 03:17:00,49.6,40.9,30.20,NNE,17,1.0,9.0,72,0.00,,,0.00,Wunderground v.1.15,2013-02-01 08:17:00,
2013-02-01 03:27:00,49.5,40.5,30.20,NNE,13,2.0,9.0,71,0.00,,,0.00,Wunderground v.1.15,2013-02-01 08:27:00,
2013-02-01 03:37:00,49.4,41.1,30.20,North,11,0.0,9.0,73,0.00,,,0.00,Wunderground v.1.15,2013-02-01 08:37:00,
2013-02-01 03:42:00,49.3,41.4,30.20,NNE,15,0.0,9.0,74,0.00,,,0.00,Wunderground v.1.15,2013-02-01 08:42:00,
2013-02-01 03:47:00,49.3,41.4,30.20,North,5,1.0,9.0,74,0.00,,,0.00,Wunderground v.1.15,2013-02-01 08:47:00,
2013-02-01 03:57:00,49.6,40.6,30.20,North,360,3.0,9.0,71,0.00,,,0.00,Wunderground v.1.15,2013-02-01 08:57:00,
2013-02-01 04:07:00,49.5,40.5,30.20,North,5,4.0,9.0,71,0.00,,,0.00,Wunderground v.1.15,2013-02-01 09:07:00,
2013-02-01 04:17:00,49.1,40.1,30.20,NE,43,3.0,4.0,71,0.00,,,0.00,Wunderground v.1.15,2013-02-01 09:17:00,
2013-02-01 04:27:00,49.3,40.7,30.20,North,11,2.0,4.0,72,0.00,,,0.00,Wunderground v.1.15,2013-02-01 09:27:00,
2013-02-01 04:37:00,49.4,40.4,30.21,NNE,32,4.0,6.0,71,0.00,,,0.00,Wunderground v.1.15,2013-02-01 09:37:00,
2013-02-01 04:47:00,49.4,40.7,30.21,North,5,4.0,4.0,72,0.00,,,0.00,Wunderground v.1.15,2013-02-01 09:47:00,
2013-02-01 04:52:00,49.4,40.7,30.21,North,11,3.0,6.0,72,0.00,,,0.00,Wunderground v.1.15,2013-02-01 09:52:00,
2013-02-01 05:02:00,49.3,40.7,30.21,NNE,15,4.0,11.0,72,0.00,,,0.00,Wunderground v.1.15,2013-02-01 10:02:00,
2013-02-01 05:12:00,49.1,41.2,30.21,North,5,3.0,11.0,74,0.00,,,0.00,Wunderground v.1.15,2013-02-01 10:12:00,
2013-02-01 05:22:00,49.2,41.3,30.21,NNE,19,3.0,11.0,74,0.00,,,0.00,Wunderground v.1.15,2013-02-01 10:22:00,
2013-02-01 05:32:00,49.3,41.0,30.21,ENE,65,4.0,4.0,73,0.00,,,0.00,Wunderground v.1.15,2013-02-01 10:32:00,
2013-02-01 05:37:00,49.0,40.7,30.21,NNE,13,2.0,6.0,73,0.00,,,0.00,Wunderground v.1.15,2013-02-01 10:37:00,
2013-02-01 05:47:00,49.3,40.7,30.21,NNE,14,3.0,11.0,72,0.00,,,0.00,Wunderground v.1.15,2013-02-01 10:47:00,
2013-02-01 05:57:00,49.7,40.7,30.21,NNE,13,4.0,11.0,71,0.00,,,0.00,Wunderground v.1.15,2013-02-01 10:57:00,
2013-02-01 06:07:00,49.9,40.5,30.23,NE,43,3.0,11.0,70,0.00,,,0.00,Wunderground v.1.15,2013-02-01 11:07:00,
2013-02-01 06:17:00,49.4,39.7,30.23,NE,38,4.0,4.0,69,0.00,,,0.00,Wunderground v.1.15,2013-02-01 11:17:00,
2013-02-01 06:27:00,49.2,40.2,30.23,NE,48,2.0,3.0,71,0.00,,,0.00,Wunderground v.1.15,2013-02-01 11:27:00,
2013-02-01 06:32:00,49.3,40.3,30.24,NNE,13,2.0,6.0,71,0.00,,,0.00,Wunderground v.1.15,2013-02-01 11:32:00,
2013-02-01 06:42:00,49.4,39.7,30.24,NNE,23,4.0,5.0,69,0.00,,,0.00,Wunderground v.1.15,2013-02-01 11:42:00,
2013-02-01 06:52:00,48.9,38.8,30.24,North,5,4.0,4.0,68,0.00,,,0.00,Wunderground v.1.15,2013-02-01 11:52:00,
2013-02-01 07:02:00,48.6,38.5,30.25,NNE,27,5.0,5.0,68,0.00,,,0.00,Wunderground v.1.15,2013-02-01 12:02:00,
2013-02-01 07:12:00,48.5,38.4,30.25,NE,45,6.0,6.0,68,0.00,,,0.00,Wunderground v.1.15,2013-02-01 12:12:00,
2013-02-01 07:17:00,48.3,38.2,30.26,NNE,15,6.0,10.0,68,0.00,,,0.00,Wunderground v.1.15,2013-02-01 12:17:00,
2013-02-01 07:27:00,48.2,37.8,30.26,NE,35,5.0,10.0,67,0.00,,,0.00,Wunderground v.1.15,2013-02-01 12:27:00,
2013-02-01 07:32:00,48.2,37.8,30.26,NNE,14,5.0,10.0,67,0.00,,,0.00,Wunderground v.1.15,2013-02-01 12:32:00,
2013-02-01 07:42:00,48.4,37.6,30.26,NNE,33,6.0,10.0,66,0.00,,,0.00,Wunderground v.1.15,2013-02-01 12:42:00,
2013-02-01 07:47:00,48.6,38.1,30.26,NNE,15,6.0,10.0,67,0.00,,,0.00,Wunderground v.1.15,2013-02-01 12:47:00,
2013-02-01 07:57:00,49.2,38.3,30.26,North,360,5.0,7.0,66,0.00,,,0.00,Wunderground v.1.15,2013-02-01 12:57:00,
2013-02-01 08:07:00,50.0,39.1,30.26,NNE,19,5.0,10.0,66,0.00,,,0.00,Wunderground v.1.15,2013-02-01 13:07:00,
2013-02-01 08:17:00,50.6,39.3,30.27,NNE,14,6.0,6.0,65,0.00,,,0.00,Wunderground v.1.15,2013-02-01 13:17:00,
2013-02-01 08:22:00,50.9,39.1,30.27,NNE,30,6.0,6.0,64,0.00,,,0.00,Wunderground v.1.15,2013-02-01 13:22:00,
2013-02-01 08:32:00,51.6,39.4,30.27,NE,36,5.0,5.0,63,0.00,,,0.00,Wunderground v.1.15,2013-02-01 13:32:00,
2013-02-01 08:42:00,52.2,40.4,30.27,North,360,5.0,5.0,64,0.00,,,0.00,Wunderground v.1.15,2013-02-01 13:42:00,
2013-02-01 08:47:00,52.5,39.4,30.28,North,360,5.0,7.0,61,0.00,,,0.00,Wunderground v.1.15,2013-02-01 13:47:00,
2013-02-01 08:57:00,53.1,40.0,30.28,NNE,18,5.0,7.0,61,0.00,,,0.00,Wunderground v.1.15,2013-02-01 13:57:00,
2013-02-01 09:07:00,53.6,39.6,30.29,ENE,57,5.0,14.0,59,0.00,,,0.00,Wunderground v.1.15,2013-02-01 14:07:00,
2013-02-01 09:17:00,54.1,38.7,30.29,ENE,61,5.0,14.0,56,0.00,,,0.00,Wunderground v.1.15,2013-02-01 14:17:00,
2013-02-01 09:27:00,54.2,38.8,30.29,NNE,23,6.0,8.0,56,0.00,,,0.00,Wunderground v.1.15,2013-02-01 14:27:00,
2013-02-01 09:37:00,54.6,39.2,30.29,NE,46,6.0,10.0,56,0.00,,,0.00,Wunderground v.1.15,2013-02-01 14:37:00,
2013-02-01 09:47:00,55.3,40.3,30.29,NNE,33,6.0,14.0,57,0.00,,,0.00,Wunderground v.1.15,2013-02-01 14:47:00,
2013-02-01 09:57:00,56.0,40.1,30.29,NE,42,6.0,14.0,55,0.00,,,0.00,Wunderground v.1.15,2013-02-01 14:57:00,
2013-02-01 10:07:00,56.4,40.4,30.30,NE,43,6.0,6.0,55,0.00,,,0.00,Wunderground v.1.15,2013-02-01 15:07:00,
2013-02-01 10:17:00,57.2,41.2,30.30,ENE,63,5.0,9.0,55,0.00,,,0.00,Wunderground v.1.15,2013-02-01 15:17:00,
2013-02-01 10:32:00,58.1,42.5,30.30,ENE,62,5.0,8.0,56,0.00,,,0.00,Wunderground v.1.15,2013-02-01 15:32:00,
2013-02-01 10:37:00,58.5,42.4,30.30,NE,35,5.0,8.0,55,0.00,,,0.00,Wunderground v.1.15,2013-02-01 15:37:00,
2013-02-01 10:47:00,59.2,43.0,30.30,ENE,67,6.0,8.0,55,0.00,,,0.00,Wunderground v.1.15,2013-02-01 15:47:00,
2013-02-01 10:57:00,59.6,43.9,30.30,NE,43,6.0,6.0,56,0.00,,,0.00,Wunderground v.1.15,2013-02-01 15:57:00,
2013-02-01 11:07:00,60.0,43.8,30.30,NNE,29,6.0,16.0,55,0.00,,,0.00,Wunderground v.1.15,2013-02-01 16:07:00,
2013-02-01 11:17:00,60.9,44.1,30.30,NNE,32,5.0,16.0,54,0.00,,,0.00,Wunderground v.1.15,2013-02-01 16:17:00,
2013-02-01 11:22:00,60.6,43.9,30.30,North,10,6.0,16.0,54,0.00,,,0.00,Wunderground v.1.15,2013-02-01 16:22:00,
2013-02-01 11:32:00,61.1,44.3,30.30,ENE,64,6.0,16.0,54,0.00,,,0.00,Wunderground v.1.15,2013-02-01 16:32:00,
2013-02-01 11:37:00,61.3,44.0,30.30,North,360,7.0,16.0,53,0.00,,,0.00,Wunderground v.1.15,2013-02-01 16:37:00,
2013-02-01 11:47:00,62.0,44.7,30.30,NE,38,6.0,16.0,53,0.00,,,0.00,Wunderground v.1.15,2013-02-01 16:47:00,
2013-02-01 11:52:00,62.4,44.5,30.30,NE,36,6.0,6.0,52,0.00,,,0.00,Wunderground v.1.15,2013-02-01 16:52:00,
2013-02-01 12:02:00,62.9,46.0,30.30,NE,53,6.0,6.0,54,0.00,,,0.00,Wunderground v.1.15,2013-02-01 17:02:00,
2013-02-01 12:12:00,63.4,45.5,30.30,NE,50,6.0,6.0,52,0.00,,,0.00,Wunderground v.1.15,2013-02-01 17:12:00,
2013-02-01 12:17:00,63.8,45.8,30.29,North,11,5.0,6.0,52,0.00,,,0.00,Wunderground v.1.15,2013-02-01 17:17:00,
2013-02-01 12:22:00,64.2,45.7,30.29,NE,40,5.0,6.0,51,0.00,,,0.00,Wunderground v.1.15,2013-02-01 17:22:00,
2013-02-01 12:27:00,64.2,45.7,30.29,North,11,5.0,6.0,51,0.00,,,0.00,Wunderground v.1.15,2013-02-01 17:27:00,
2013-02-01 12:37:00,64.4,46.4,30.28,NE,46,5.0,8.0,52,0.00,,,0.00,Wunderground v.1.15,2013-02-01 17:37:00,
2013-02-01 12:47:00,64.7,45.1,30.28,NE,35,6.0,8.0,49,0.00,,,0.00,Wunderground v.1.15,2013-02-01 17:47:00,
2013-02-01 12:57:00,64.8,45.2,30.28,NE,51,6.0,7.0,49,0.00,,,0.00,Wunderground v.1.15,2013-02-01 17:57:00,
2013-02-01 13:07:00,65.4,44.1,30.27,North,9,5.0,15.0,46,0.00,,,0.00,Wunderground v.1.15,2013-02-01 18:07:00,
2013-02-01 13:17:00,65.7,43.8,30.26,NE,38,6.0,15.0,45,0.00,,,0.00,Wunderground v.1.15,2013-02-01 18:17:00,
2013-02-01 13:27:00,65.7,44.3,30.26,NNE,14,6.0,15.0,46,0.00,,,0.00,Wunderground v.1.15,2013-02-01 18:27:00,
2013-02-01 13:37:00,66.5,43.9,30.25,East,84,6.0,7.0,44,0.00,,,0.00,Wunderground v.1.15,2013-02-01 18:37:00,
2013-02-01 13:47:00,67.0,44.4,30.24,NE,41,6.0,15.0,44,0.00,,,0.00,Wunderground v.1.15,2013-02-01 18:47:00,
2013-02-01 13:52:00,67.3,44.0,30.24,NE,34,5.0,15.0,43,0.00,,,0.00,Wunderground v.1.15,2013-02-01 18:52:00,
2013-02-01 13:57:00,67.5,43.0,30.24,NE,38,5.0,15.0,41,0.00,,,0.00,Wunderground v.1.15,2013-02-01 18:57:00,
2013-02-01 14:07:00,67.6,43.1,30.24,NNE,26,5.0,6.0,41,0.00,,,0.00,Wunderground v.1.15,2013-02-01 19:07:00,
2013-02-01 14:17:00,68.0,44.0,30.23,North,5,4.0,10.0,42,0.00,,,0.00,Wunderground v.1.15,2013-02-01 19:17:00,
2013-02-01 14:27:00,68.4,43.8,30.23,ENE,64,5.0,9.0,41,0.00,,,0.00,Wunderground v.1.15,2013-02-01 19:27:00,
2013-02-01 14:37:00,68.4,43.1,30.23,North,9,5.0,7.0,40,0.00,,,0.00,Wunderground v.1.15,2013-02-01 19:37:00,
2013-02-01 14:42:00,68.1,43.5,30.23,NE,46,6.0,6.0,41,0.00,,,0.00,Wunderground v.1.15,2013-02-01 19:42:00,
2013-02-01 14:52:00,68.4,42.5,30.22,North,9,5.0,9.0,39,0.00,,,0.00,Wunderground v.1.15,2013-02-01 19:52:00,
2013-02-01 15:02:00,68.4,43.1,30.22,NNE,15,5.0,5.0,40,0.00,,,0.00,Wunderground v.1.15,2013-02-01 20:02:00,
2013-02-01 15:12:00,69.3,43.9,30.22,NE,42,4.0,14.0,40,0.00,,,0.00,Wunderground v.1.15,2013-02-01 20:12:00,
2013-02-01 15:22:00,69.0,43.0,30.21,NNE,26,5.0,14.0,39,0.00,,,0.00,Wunderground v.1.15,2013-02-01 20:22:00,
2013-02-01 15:32:00,68.5,41.9,30.21,NNE,19,7.0,14.0,38,0.00,,,0.00,Wunderground v.1.15,2013-02-01 20:32:00,
2013-02-01 15:42:00,68.9,42.2,30.21,NNE,15,4.0,14.0,38,0.00,,,0.00,Wunderground v.1.15,2013-02-01 20:42:00,
2013-02-01 15:52:00,69.0,42.3,30.21,NNE,19,5.0,5.0,38,0.00,,,0.00,Wunderground v.1.15,2013-02-01 20:52:00,
2013-02-01 15:57:00,68.9,42.9,30.21,NE,56,5.0,6.0,39,0.00,,,0.00,Wunderground v.1.15,2013-02-01 20:57:00,
2013-02-01 16:07:00,68.8,42.8,30.21,NE,40,4.0,14.0,39,0.00,,,0.00,Wunderground v.1.15,2013-02-01 21:07:00,
2013-02-01 16:17:00,68.7,42.7,30.21,NE,53,5.0,5.0,39,0.00,,,0.00,Wunderground v.1.15,2013-02-01 21:17:00,
2013-02-01 16:27:00,69.1,43.1,30.21,NE,49,3.0,5.0,39,0.00,,,0.00,Wunderground v.1.15,2013-02-01 21:27:00,
2013-02-01 16:37:00,68.8,39.3,30.21,ENE,67,4.0,4.0,34,0.00,,,0.00,Wunderground v.1.15,2013-02-01 21:37:00,
2013-02-01 16:42:00,68.9,39.4,30.21,NE,54,4.0,5.0,34,0.00,,,0.00,Wunderground v.1.15,2013-02-01 21:42:00,
2013-02-01 16:52:00,68.9,36.2,30.22,East,98,4.0,4.0,30,0.00,,,0.00,Wunderground v.1.15,2013-02-01 21:52:00,
2013-02-01 17:02:00,68.6,36.7,30.22,NE,55,4.0,17.0,31,0.00,,,0.00,Wunderground v.1.15,2013-02-01 22:02:00,
2013-02-01 17:12:00,68.2,36.4,30.22,ENE,62,5.0,5.0,31,0.00,,,0.00,Wunderground v.1.15,2013-02-01 22:12:00,
2013-02-01 17:22:00,67.8,35.2,30.22,ENE,73,5.0,5.0,30,0.00,,,0.00,Wunderground v.1.15,2013-02-01 22:22:00,
2013-02-01 17:32:00,67.5,35.8,30.22,ENE,60,3.0,17.0,31,0.00,,,0.00,Wunderground v.1.15,2013-02-01 22:32:00,
2013-02-01 17:42:00,67.0,36.1,30.22,ENE,68,3.0,17.0,32,0.00,,,0.00,Wunderground v.1.15,2013-02-01 22:42:00,
2013-02-01 17:52:00,66.4,34.8,30.22,ENE,57,3.0,17.0,31,0.00,,,0.00,Wunderground v.1.15,2013-02-01 22:52:00,
2013-02-01 17:57:00,66.0,35.3,30.22,ENE,59,3.0,17.0,32,0.00,,,0.00,Wunderground v.1.15,2013-02-01 22:57:00,
2013-02-01 18:07:00,65.5,34.8,30.23,NE,53,2.0,3.0,32,0.00,,,0.00,Wunderground v.1.15,2013-02-01 23:07:00,
2013-02-01 18:12:00,65.2,34.6,30.23,ENE,59,1.0,4.0,32,0.00,,,0.00,Wunderground v.1.15,2013-02-01 23:12:00,
2013-02-01 18:22:00,64.8,35.0,30.23,NE,48,1.0,1.0,33,0.00,,,0.00,Wunderground v.1.15,2013-02-01 23:22:00,
2013-02-01 18:27:00,64.4,34.6,30.23,NE,56,1.0,1.0,33,0.00,,,0.00,Wunderground v.1.15,2013-02-01 23:27:00,
2013-02-01 18:37:00,63.9,35.7,30.23,ENE,57,0.0,0.0,35,0.00,,,0.00,Wunderground v.1.15,2013-02-01 23:37:00,
2013-02-01 18:47:00,63.5,36.0,30.23,ENE,59,0.0,0.0,36,0.00,,,0.00,Wunderground v.1.15,2013-02-01 23:47:00,
2013-02-01 18:57:00,63.5,36.7,30.23,ENE,62,1.0,1.0,37,0.00,,,0.00,Wunderground v.1.15,2013-02-01 23:57:00,
2013-02-01 19:07:00,63.0,37.0,30.23,ENE,67,1.0,13.0,38,0.00,,,0.00,Wunderground v.1.15,2013-02-02 00:07:00,
2013-02-01 19:17:00,62.7,36.7,30.23,ENE,73,1.0,13.0,38,0.00,,,0.00,Wunderground v.1.15,2013-02-02 00:17:00,
2013-02-01 19:22:00,62.6,36.6,30.23,ENE,69,1.0,1.0,38,0.00,,,0.00,Wunderground v.1.15,2013-02-02 00:22:00,
2013-02-01 19:32:00,62.2,36.3,30.23,ENE,67,0.0,13.0,38,0.00,,,0.00,Wunderground v.1.15,2013-02-02 00:32:00,
2013-02-01 19:37:00,62.0,36.7,30.23,ENE,67,0.0,13.0,39,0.00,,,0.00,Wunderground v.1.15,2013-02-02 00:37:00,
2013-02-01 19:47:00,61.3,36.8,30.24,ENE,66,0.0,13.0,40,0.00,,,0.00,Wunderground v.1.15,2013-02-02 00:47:00,
2013-02-01 19:57:00,61.1,36.6,30.24,ENE,68,0.0,13.0,40,0.00,,,0.00,Wunderground v.1.15,2013-02-02 00:57:00,
2013-02-01 20:02:00,61.1,36.6,30.24,ENE,71,0.0,13.0,40,0.00,,,0.00,Wunderground v.1.15,2013-02-02 01:02:00,
2013-02-01 20:12:00,60.9,38.2,30.24,NE,55,0.0,0.0,43,0.00,,,0.00,Wunderground v.1.15,2013-02-02 01:12:00,
2013-02-01 20:22:00,60.8,37.5,30.23,ENE,59,0.0,0.0,42,0.00,,,0.00,Wunderground v.1.15,2013-02-02 01:22:00,
2013-02-01 20:27:00,60.8,37.5,30.23,ENE,61,0.0,0.0,42,0.00,,,0.00,Wunderground v.1.15,2013-02-02 01:27:00,
2013-02-01 20:37:00,60.9,37.6,30.24,ENE,59,0.0,0.0,42,0.00,,,0.00,Wunderground v.1.15,2013-02-02 01:37:00,
2013-02-01 20:42:00,60.7,37.5,30.24,ENE,68,0.0,0.0,42,0.00,,,0.00,Wunderground v.1.15,2013-02-02 01:42:00,
2013-02-01 20:52:00,60.6,35.5,30.24,ENE,62,0.0,0.0,39,0.00,,,0.00,Wunderground v.1.15,2013-02-02 01:52:00,
2013-02-01 21:02:00,60.2,33.8,30.24,NE,55,0.0,9.0,37,0.00,,,0.00,Wunderground v.1.15,2013-02-02 02:02:00,
2013-02-01 21:12:00,59.8,32.8,30.24,ENE,58,0.0,9.0,36,0.00,,,0.00,Wunderground v.1.15,2013-02-02 02:12:00,
2013-02-01 21:22:00,59.0,32.7,30.24,ENE,59,0.0,9.0,37,0.00,,,0.00,Wunderground v.1.15,2013-02-02 02:22:00,
2013-02-01 21:32:00,58.7,32.5,30.24,ENE,63,0.0,9.0,37,0.00,,,0.00,Wunderground v.1.15,2013-02-02 02:32:00,
2013-02-01 21:42:00,58.9,32.7,30.24,NE,44,0.0,9.0,37,0.00,,,0.00,Wunderground v.1.15,2013-02-02 02:42:00,
2013-02-01 21:47:00,58.9,32.7,30.25,NE,47,0.0,9.0,37,0.00,,,0.00,Wunderground v.1.15,2013-02-02 02:47:00,
2013-02-01 21:57:00,58.7,33.1,30.25,NE,51,0.0,9.0,38,0.00,,,0.00,Wunderground v.1.15,2013-02-02 02:57:00,
2013-02-01 22:07:00,58.7,33.8,30.25,NE,55,0.0,9.0,39,0.00,,,0.00,Wunderground v.1.15,2013-02-02 03:07:00,
2013-02-01 22:12:00,58.7,33.8,30.25,ENE,57,0.0,0.0,39,0.00,,,0.00,Wunderground v.1.15,2013-02-02 03:12:00,
2013-02-01 22:22:00,58.5,34.2,30.25,ENE,58,0.0,0.0,40,0.00,,,0.00,Wunderground v.1.15,2013-02-02 03:22:00,
2013-02-01 22:27:00,58.5,33.6,30.25,NE,39,0.0,0.0,39,0.00,,,0.00,Wunderground v.1.15,2013-02-02 03:27:00,
2013-02-01 22:37:00,58.4,34.2,30.25,ENE,59,0.0,7.0,40,0.00,,,0.00,Wunderground v.1.15,2013-02-02 03:37:00,
2013-02-01 22:47:00,57.9,33.7,30.25,ENE,71,0.0,0.0,40,0.00,,,0.00,Wunderground v.1.15,2013-02-02 03:47:00,
2013-02-01 22:57:00,57.3,33.8,30.25,ENE,73,0.0,0.0,41,0.00,,,0.00,Wunderground v.1.15,2013-02-02 03:57:00,
2013-02-01 23:02:00,56.9,33.4,30.26,ENE,73,0.0,8.0,41,0.00,,,0.00,Wunderground v.1.15,2013-02-02 04:02:00,
2013-02-01 23:07:00,56.5,33.7,30.26,ENE,73,0.0,8.0,42,0.00,,,0.00,Wunderground v.1.15,2013-02-02 04:07:00,
2013-02-01 23:17:00,55.8,34.2,30.26,ENE,73,0.0,8.0,44,0.00,,,0.00,Wunderground v.1.15,2013-02-02 04:17:00,
2013-02-01 23:27:00,54.7,34.8,30.26,ENE,72,0.0,8.0,47,0.00,,,0.00,Wunderground v.1.15,2013-02-02 04:27:00,
2013-02-01 23:37:00,53.5,35.3,30.26,ENE,72,0.0,8.0,50,0.00,,,0.00,Wunderground v.1.15,2013-02-02 04:37:00,
2013-02-01 23:47:00,52.5,35.4,30.26,ENE,73,0.0,8.0,52,0.00,,,0.00,Wunderground v.1.15,2013-02-02 04:47:00,
2013-02-01 23:52:00,52.0,35.9,30.26,ENE,73,0.0,8.0,54,0.00,,,0.00,Wunderground v.1.15,2013-02-02 04:52:00,